createdAt,value
2019-05-05T00:02:18.309Z,101064.92
2019-05-05T00:04:49.604Z,101066.85
2019-05-05T00:07:25.357Z,101070.27
2019-05-05T00:09:55.404Z,101072.84
2019-05-05T00:12:34.323Z,101066.86
2019-05-05T00:15:14.504Z,101072.84
2019-05-05T00:17:45.099Z,101073.56
2019-05-05T00:20:15.393Z,101072.94
2019-05-05T00:22:45.494Z,101079.28
2019-05-05T00:25:15.579Z,101078.06
2019-05-05T00:27:45.355Z,101075.61
2019-05-05T00:30:15.455Z,101082.20
2019-05-05T00:32:45.194Z,101082.72
2019-05-05T00:35:14.949Z,101077.97
2019-05-05T00:37:45.070Z,101086.73
2019-05-05T00:40:15.707Z,101090.03
2019-05-05T00:42:46.962Z,101093.81
2019-05-05T00:45:19.126Z,101095.98
2019-05-05T00:47:54.465Z,101100.12
2019-05-05T00:50:25.219Z,101096.93
2019-05-05T00:52:55.233Z,101094.13
2019-05-05T00:55:24.963Z,101093.78
2019-05-05T00:57:54.937Z,101098.41
2019-05-05T01:00:27.734Z,101097.67
2019-05-05T01:02:58.033Z,101098.66
2019-05-05T01:05:34.968Z,101103.78
2019-05-05T01:08:07.497Z,101102.53
2019-05-05T01:10:37.582Z,101108.06
2019-05-05T01:13:10.261Z,101116.49
2019-05-05T01:15:40.052Z,101111.66
2019-05-05T01:18:09.875Z,101111.77
2019-05-05T01:20:39.464Z,101116.45
2019-05-05T01:23:09.350Z,101118.07
2019-05-05T01:25:38.983Z,101122.63
2019-05-05T01:28:09.429Z,101117.75
2019-05-05T01:30:40.706Z,101125.39
2019-05-05T01:33:10.169Z,101126.02
2019-05-05T01:35:39.991Z,101126.34
2019-05-05T01:38:27.189Z,101124.84
2019-05-05T01:41:00.540Z,101121.16
2019-05-05T01:43:30.546Z,101125.47
2019-05-05T01:46:00.474Z,101129.39
2019-05-05T01:48:30.124Z,101134.10
2019-05-05T01:50:59.837Z,101137.44
2019-05-05T01:53:31.745Z,101137.28
2019-05-05T01:56:02.234Z,101140.22
2019-05-05T01:58:32.193Z,101142.02
2019-05-05T02:01:01.820Z,101141.11
2019-05-05T02:03:31.489Z,101143.95
2019-05-05T02:06:01.226Z,101146.94
2019-05-05T02:08:30.820Z,101152.53
2019-05-05T02:11:05.384Z,101149.39
2019-05-05T02:13:35.275Z,101149.22
2019-05-05T02:16:05.219Z,101151.64
2019-05-05T02:18:34.823Z,101150.33
2019-05-05T02:21:08.768Z,101152.83
2019-05-05T02:23:38.769Z,101147.37
2019-05-05T02:26:09.381Z,101153.16
2019-05-05T02:28:45.210Z,101151.67
2019-05-05T02:31:16.898Z,101149.22
2019-05-05T02:33:46.610Z,101155.83
2019-05-05T02:36:16.297Z,101149.11
2019-05-05T02:38:46.568Z,101151.51
2019-05-05T02:41:17.738Z,101148.41
2019-05-05T02:43:48.164Z,101150.19
2019-05-05T02:46:21.094Z,101148.95
2019-05-05T02:48:55.059Z,101148.14
2019-05-05T02:51:26.794Z,101149.55
2019-05-05T02:53:59.571Z,101148.05
2019-05-05T02:56:45.959Z,101154.41
2019-05-05T02:59:20.012Z,101153.23
2019-05-05T03:01:53.864Z,101153.72
2019-05-05T03:04:24.598Z,101150.84
2019-05-05T03:06:56.949Z,101162.35
2019-05-05T03:09:29.179Z,101156.88
2019-05-05T03:12:02.161Z,101168.58
2019-05-05T03:14:34.739Z,101168.69
2019-05-05T03:17:10.102Z,101171.59
2019-05-05T03:19:40.101Z,101178.61
2019-05-05T03:22:09.933Z,101175.49
2019-05-05T03:24:40.109Z,101179.42
2019-05-05T03:27:10.482Z,101183.33
2019-05-05T03:29:40.746Z,101192.27
2019-05-05T03:32:11.873Z,101190.34
2019-05-05T03:34:41.661Z,101196.55
2019-05-05T03:37:11.551Z,101194.62
2019-05-05T03:39:44.495Z,101198.84
2019-05-05T03:42:16.134Z,101195.37
2019-05-05T03:44:47.467Z,101194.50
2019-05-05T03:47:18.403Z,101205.83
2019-05-05T03:49:49.094Z,101205.25
2019-05-05T03:52:18.914Z,101198.45
2019-05-05T03:54:49.166Z,101203.47
2019-05-05T03:57:18.827Z,101206.84
2019-05-05T03:59:49.012Z,101203.34
2019-05-05T04:02:18.503Z,101210.33
2019-05-05T04:04:49.843Z,101210.77
2019-05-05T04:07:20.036Z,101208.09
2019-05-05T04:09:51.009Z,101217.24
2019-05-05T04:12:20.763Z,101215.44
2019-05-05T04:14:54.440Z,101221.77
2019-05-05T04:17:33.554Z,101221.87
2019-05-05T04:20:13.881Z,101226.84
2019-05-05T04:22:43.591Z,101238.98
2019-05-05T04:25:13.890Z,101233.67
2019-05-05T04:28:04.516Z,101238.10
2019-05-05T04:30:34.336Z,101235.53
2019-05-05T04:33:04.584Z,101237.31
2019-05-05T04:35:34.391Z,101239.73
2019-05-05T04:38:04.722Z,101245.53
2019-05-05T04:40:34.769Z,101246.72
2019-05-05T04:43:04.424Z,101251.33
2019-05-05T04:45:34.838Z,101255.29
2019-05-05T04:48:06.246Z,101252.77
2019-05-05T04:50:54.436Z,101263.37
2019-05-05T04:53:25.957Z,101268.35
2019-05-05T04:55:55.548Z,101272.69
2019-05-05T04:58:25.178Z,101272.25
2019-05-05T05:00:54.879Z,101275.98
2019-05-05T05:03:32.108Z,101275.19
2019-05-05T05:06:05.781Z,101273.25
2019-05-05T05:08:35.653Z,101279.58
2019-05-05T05:11:05.876Z,101283.76
2019-05-05T05:13:37.577Z,101276.44
2019-05-05T05:16:07.347Z,101282.92
2019-05-05T05:18:37.029Z,101276.95
2019-05-05T05:21:06.656Z,101287.45
2019-05-05T05:23:36.383Z,101292.56
2019-05-05T05:26:06.141Z,101291.82
2019-05-05T05:28:35.772Z,101292.16
2019-05-05T05:31:05.404Z,101292.72
2019-05-05T05:33:35.871Z,101302.95
2019-05-05T05:36:05.518Z,101294.97
2019-05-05T05:38:35.197Z,101298.13
2019-05-05T05:41:09.321Z,101305.11
2019-05-05T05:43:40.539Z,101301.98
2019-05-05T05:46:13.512Z,101293.32
2019-05-05T05:48:47.752Z,101303.08
2019-05-05T05:51:23.687Z,101301.87
2019-05-05T05:53:54.413Z,101311.66
2019-05-05T05:56:25.002Z,101321.30
2019-05-05T05:58:54.914Z,101311.41
2019-05-05T06:01:24.668Z,101324.38
2019-05-05T06:03:54.694Z,101328.41
2019-05-05T06:06:24.345Z,101334.52
2019-05-05T06:08:54.593Z,101342.81
2019-05-05T06:11:24.375Z,101341.19
2019-05-05T06:13:54.481Z,101341.91
2019-05-05T06:16:27.709Z,101345.12
2019-05-05T06:18:57.362Z,101348.70
2019-05-05T06:21:26.920Z,101344.59
2019-05-05T06:23:57.652Z,101347.03
2019-05-05T06:26:27.363Z,101347.96
2019-05-05T06:28:57.032Z,101351.86
2019-05-05T06:31:26.766Z,101353.25
2019-05-05T06:33:58.732Z,101351.20
2019-05-05T06:36:28.395Z,101359.11
2019-05-05T06:38:59.435Z,101353.56
2019-05-05T06:41:30.573Z,101361.00
2019-05-05T06:44:03.738Z,101364.51
2019-05-05T06:46:44.494Z,101360.11
2019-05-05T06:49:14.113Z,101367.97
2019-05-05T06:51:44.114Z,101363.62
2019-05-05T06:54:14.430Z,101365.51
2019-05-05T06:56:44.547Z,101365.77
2019-05-05T06:59:14.400Z,101367.00
2019-05-05T07:01:44.305Z,101373.31
2019-05-05T07:04:14.019Z,101376.86
2019-05-05T07:06:53.533Z,101368.02
2019-05-05T07:09:16.133Z,101366.13
2019-05-05T07:11:45.898Z,101369.25
2019-05-05T07:14:15.758Z,101369.37
2019-05-05T07:16:45.451Z,101368.19
2019-05-05T07:19:15.125Z,101363.48
2019-05-05T07:21:44.756Z,101364.86
2019-05-05T07:24:14.655Z,101364.34
2019-05-05T07:26:44.765Z,101361.50
2019-05-05T07:29:17.821Z,101365.52
2019-05-05T07:31:45.791Z,101368.38
2019-05-05T07:34:17.199Z,101366.47
2019-05-05T07:36:48.345Z,101374.90
2019-05-05T07:39:17.988Z,101380.61
2019-05-05T07:41:47.672Z,101380.22
2019-05-05T07:44:28.446Z,101377.88
2019-05-05T07:46:49.140Z,101371.15
2019-05-05T07:49:18.678Z,101379.17
2019-05-05T07:51:48.448Z,101377.77
2019-05-05T07:54:18.041Z,101382.42
2019-05-05T07:56:47.563Z,101377.86
2019-05-05T07:59:17.576Z,101372.81
2019-05-05T08:01:47.303Z,101374.96
2019-05-05T08:04:16.839Z,101379.03
2019-05-05T08:06:46.342Z,101381.75
2019-05-05T08:09:21.727Z,101380.32
2019-05-05T08:11:50.268Z,101381.91
2019-05-05T08:14:19.775Z,101380.62
2019-05-05T08:16:59.797Z,101385.57
2019-05-05T08:19:34.702Z,101391.55
2019-05-05T08:22:04.261Z,101387.82
2019-05-05T08:24:54.406Z,101392.23
2019-05-05T08:27:37.282Z,101386.36
2019-05-05T08:30:10.337Z,101389.37
2019-05-05T08:32:43.656Z,101390.32
2019-05-05T08:35:14.766Z,101386.46
2019-05-05T08:37:44.649Z,101385.10
2019-05-05T08:40:14.855Z,101382.63
2019-05-05T08:42:44.741Z,101390.45
2019-05-05T08:45:14.728Z,101386.48
2019-05-05T08:47:44.458Z,101389.91
2019-05-05T08:50:14.194Z,101389.34
2019-05-05T08:53:04.518Z,101389.00
2019-05-05T08:55:34.808Z,101386.45
2019-05-05T08:58:04.712Z,101382.64
2019-05-05T09:00:35.638Z,101378.11
2019-05-05T09:03:05.398Z,101378.08
2019-05-05T09:05:35.361Z,101380.52
2019-05-05T09:08:05.237Z,101379.42
2019-05-05T09:10:34.960Z,101384.58
2019-05-05T09:13:04.966Z,101381.88
2019-05-05T09:15:37.496Z,101383.76
2019-05-05T09:18:06.223Z,101381.94
2019-05-05T09:20:35.852Z,101381.63
2019-05-05T09:23:06.082Z,101376.27
2019-05-05T09:25:37.467Z,101375.72
2019-05-05T09:28:24.631Z,101376.62
2019-05-05T09:30:54.401Z,101378.95
2019-05-05T09:33:24.839Z,101378.12
2019-05-05T09:35:54.669Z,101379.08
2019-05-05T09:38:24.574Z,101377.61
2019-05-05T09:40:54.423Z,101370.41
2019-05-05T09:43:24.567Z,101374.27
2019-05-05T09:45:54.719Z,101370.45
2019-05-05T09:48:25.028Z,101367.44
2019-05-05T09:50:54.668Z,101372.45
2019-05-05T09:53:27.276Z,101380.97
2019-05-05T09:55:55.626Z,101382.20
2019-05-05T09:58:25.677Z,101379.19
2019-05-05T10:00:56.734Z,101371.00
2019-05-05T10:03:26.387Z,101384.23
2019-05-05T10:05:56.034Z,101382.48
2019-05-05T10:08:25.649Z,101376.21
2019-05-05T10:10:55.289Z,101374.77
2019-05-05T10:13:24.872Z,101371.59
2019-05-05T10:15:54.997Z,101383.42
2019-05-05T10:18:26.302Z,101379.31
2019-05-05T10:20:57.701Z,101377.45
2019-05-05T10:23:28.861Z,101377.38
2019-05-05T10:26:01.221Z,101375.33
2019-05-05T10:28:30.960Z,101382.69
2019-05-05T10:31:00.584Z,101383.30
2019-05-05T10:33:30.638Z,101380.52
2019-05-05T10:36:01.134Z,101376.63
2019-05-05T10:38:35.340Z,101371.20
2019-05-05T10:41:04.953Z,101371.91
2019-05-05T11:06:56.102Z,101379.95
2019-05-05T11:09:25.817Z,101382.99
2019-05-05T11:11:56.182Z,101381.08
2019-05-05T11:14:25.740Z,101379.75
2019-05-05T11:16:58.452Z,101384.73
2019-05-05T11:19:28.360Z,101385.92
2019-05-05T11:21:58.165Z,101384.03
2019-05-05T11:24:28.098Z,101380.87
2019-05-05T11:26:57.796Z,101372.91
2019-05-05T11:29:27.676Z,101378.80
2019-05-05T11:31:58.989Z,101381.11
2019-05-05T11:34:29.080Z,101378.06
2019-05-05T11:37:00.836Z,101372.02
2019-05-05T11:39:33.915Z,101378.21
2019-05-05T11:42:04.423Z,101373.53
2019-05-05T11:44:34.243Z,101373.60
2019-05-05T11:47:03.911Z,101365.84
2019-05-05T11:49:33.804Z,101363.01
2019-05-05T11:52:06.112Z,101366.81
2019-05-05T11:54:36.031Z,101361.98
2019-05-05T11:57:05.924Z,101371.86
2019-05-05T11:59:35.568Z,101368.22
2019-05-05T12:02:05.341Z,101364.09
2019-05-05T12:04:34.943Z,101374.88
2019-05-05T12:07:04.727Z,101380.55
2019-05-05T12:09:35.972Z,101384.41
2019-05-05T12:12:05.723Z,101389.75
2019-05-05T12:14:36.004Z,101387.14
2019-05-05T12:17:05.625Z,101390.98
2019-05-05T12:19:38.203Z,101393.64
2019-05-05T12:22:07.825Z,101392.00
2019-05-05T12:24:39.124Z,101388.80
2019-05-05T12:27:11.136Z,101385.16
2019-05-05T12:29:44.159Z,101386.20
2019-05-05T12:32:14.925Z,101397.66
2019-05-05T12:34:44.607Z,101390.22
2019-05-05T12:37:15.056Z,101392.11
2019-05-05T12:39:45.124Z,101389.95
2019-05-05T12:42:14.731Z,101391.82
2019-05-05T12:44:46.367Z,101397.20
2019-05-05T12:47:20.260Z,101394.64
2019-05-05T12:49:49.865Z,101398.73
2019-05-05T12:52:19.507Z,101385.51
2019-05-05T12:54:49.274Z,101386.68
2019-05-05T12:57:19.003Z,101387.27
2019-05-05T12:59:50.480Z,101387.05
2019-05-05T13:02:20.055Z,101386.80
2019-05-05T13:04:49.645Z,101382.41
2019-05-05T13:07:19.370Z,101382.58
2019-05-05T13:09:48.894Z,101377.41
2019-05-05T13:12:18.559Z,101376.12
2019-05-05T13:14:48.264Z,101386.03
2019-05-05T13:17:17.873Z,101371.00
2019-05-05T13:19:50.253Z,101369.14
2019-05-05T13:22:33.829Z,101374.52
2019-05-05T13:25:19.458Z,101372.78
2019-05-05T13:27:49.162Z,101374.96
2019-05-05T13:30:19.036Z,101368.54
2019-05-05T13:32:48.702Z,101366.56
2019-05-05T13:35:18.547Z,101370.41
2019-05-05T13:37:48.208Z,101372.69
2019-05-05T13:40:18.476Z,101370.09
2019-05-05T13:42:48.480Z,101380.02
2019-05-05T13:45:35.898Z,101377.81
2019-05-05T13:48:05.806Z,101372.19
2019-05-05T13:50:39.776Z,101381.40
2019-05-05T13:53:09.631Z,101383.78
2019-05-05T13:55:39.510Z,101377.03
2019-05-05T13:58:09.280Z,101372.85
2019-05-05T14:00:39.332Z,101369.14
2019-05-05T14:03:09.226Z,101374.09
2019-05-05T14:05:39.299Z,101375.64
2019-05-05T14:08:09.183Z,101386.55
2019-05-05T16:12:39.760Z,101404.06
2019-05-05T16:15:29.957Z,101411.26
2019-05-05T16:18:17.779Z,101413.46
2019-05-05T16:20:55.282Z,101412.06
2019-05-05T16:23:31.565Z,101403.23
2019-05-05T16:26:03.579Z,101405.49
2019-05-05T16:28:34.296Z,101407.41
2019-05-05T16:31:05.511Z,101406.23
2019-05-05T16:33:35.306Z,101408.52
2019-05-05T16:36:06.422Z,101413.55
2019-05-05T16:38:36.537Z,101405.95
2019-05-05T16:41:06.306Z,101402.97
2019-05-05T16:43:37.194Z,101404.67
2019-05-05T16:46:08.213Z,101396.41
2019-05-05T16:48:37.837Z,101400.45
2019-05-05T16:51:09.224Z,101402.58
2019-05-05T16:53:39.421Z,101394.75
2019-05-05T16:56:16.536Z,101404.33
2019-05-05T16:58:46.825Z,101403.88
2019-05-05T17:01:17.805Z,101402.16
2019-05-05T17:03:47.700Z,101411.83
2019-05-05T17:06:18.637Z,101415.19
2019-05-05T17:08:48.506Z,101416.72
2019-05-05T17:11:18.382Z,101420.19
2019-05-05T17:14:08.863Z,101419.05
2019-05-05T17:16:44.250Z,101420.93
2019-05-05T17:19:18.938Z,101426.14
2019-05-05T17:21:53.387Z,101419.11
2019-05-05T17:24:24.039Z,101423.05
2019-05-05T17:26:55.138Z,101420.13
2019-05-05T17:29:25.324Z,101425.42
2019-05-05T17:31:55.831Z,101420.47
2019-05-05T17:34:25.802Z,101417.43
2019-05-05T17:36:56.299Z,101426.56
2019-05-05T17:39:27.860Z,101418.61
2019-05-05T17:42:14.115Z,101427.10
2019-05-05T17:44:54.065Z,101421.43
2019-05-05T17:47:37.650Z,101432.41
2019-05-05T17:50:18.643Z,101437.08
2019-05-05T17:53:04.917Z,101433.08
2019-05-05T17:55:35.886Z,101439.22
2019-05-05T17:58:05.703Z,101441.06
2019-05-05T18:03:12.087Z,101443.19
2019-05-05T18:05:59.701Z,101442.50
2019-05-05T18:08:37.145Z,101442.22
2019-05-05T18:11:13.534Z,101435.49
2019-05-05T18:13:44.971Z,101436.41
2019-05-05T18:16:16.558Z,101433.47
2019-05-05T18:18:47.810Z,101432.22
2019-05-05T18:21:19.432Z,101442.56
2019-05-05T18:23:49.624Z,101438.77
2019-05-05T18:26:19.794Z,101437.03
2019-05-05T18:28:50.013Z,101434.97
2019-05-05T18:31:19.862Z,101444.75
2019-05-05T18:33:49.828Z,101443.20
2019-05-05T18:36:19.713Z,101449.48
2019-05-05T18:39:08.855Z,101449.09
2019-05-05T18:41:46.550Z,101459.50
2019-05-05T18:44:16.020Z,101457.90
2019-05-05T18:46:47.517Z,101465.86
2019-05-05T18:49:17.181Z,101464.30
2019-05-05T18:51:50.715Z,101466.00
2019-05-05T18:54:20.430Z,101470.67
2019-05-05T18:56:51.276Z,101469.72
2019-05-05T18:59:20.893Z,101476.84
2019-05-05T19:01:52.055Z,101476.28
2019-05-05T19:04:31.748Z,101479.00
2019-05-05T19:07:08.794Z,101475.23
2019-05-05T19:09:50.363Z,101476.67
2019-05-05T19:12:10.336Z,101477.34
2019-05-05T19:14:40.139Z,101478.66
2019-05-05T19:17:09.978Z,101482.47
2019-05-05T19:19:41.264Z,101489.14
2019-05-05T19:22:17.873Z,101480.56
2019-05-05T19:24:47.578Z,101481.95
2019-05-05T19:27:17.696Z,101483.57
2019-05-05T19:29:47.654Z,101487.03
2019-05-05T19:32:17.647Z,101480.12
2019-05-05T19:34:47.615Z,101480.97
2019-05-05T19:37:18.871Z,101482.50
2019-05-05T19:39:48.428Z,101485.86
2019-05-05T19:42:17.967Z,101484.48
2019-05-05T19:44:47.747Z,101488.56
2019-05-05T19:47:21.471Z,101484.02
2019-05-05T19:49:56.649Z,101487.30
2019-05-05T19:52:26.206Z,101486.97
2019-05-05T19:54:56.104Z,101492.04
2019-05-05T19:57:25.794Z,101491.96
2019-05-05T19:59:58.103Z,101489.05
2019-05-05T20:02:27.696Z,101487.97
2019-05-05T20:04:57.737Z,101491.19
2019-05-05T20:07:27.368Z,101494.61
2019-05-05T20:09:57.037Z,101493.34
2019-05-05T20:12:26.744Z,101493.34
2019-05-05T20:14:56.842Z,101494.55
2019-05-05T20:17:34.314Z,101490.21
2019-05-05T20:20:06.726Z,101494.48
2019-05-05T20:22:36.682Z,101503.31
2019-05-05T20:25:10.414Z,101494.63
2019-05-05T20:27:39.984Z,101496.97
2019-05-05T20:30:10.568Z,101500.47
2019-05-05T20:32:41.772Z,101497.55
2019-05-05T20:35:24.094Z,101496.98
2019-05-05T20:37:57.605Z,101501.10
2019-05-05T20:40:31.937Z,101503.95
2019-05-05T20:43:04.016Z,101496.19
2019-05-05T20:45:34.773Z,101495.41
2019-05-05T20:48:04.670Z,101497.11
2019-05-05T20:50:34.607Z,101493.22
2019-05-05T20:53:04.997Z,101501.61
2019-05-05T20:55:34.913Z,101494.48
2019-05-05T20:58:04.889Z,101504.80
2019-05-05T21:00:34.926Z,101506.20
2019-05-05T21:03:05.011Z,101506.01
2019-05-05T21:05:35.061Z,101501.75
2019-05-05T21:08:05.103Z,101497.18
2019-05-05T21:10:34.984Z,101499.23
2019-05-05T21:13:04.653Z,101501.16
2019-05-05T21:15:34.354Z,101499.37
2019-05-05T21:18:05.116Z,101496.22
2019-05-05T21:20:36.174Z,101495.59
2019-05-05T21:23:08.503Z,101491.53
2019-05-05T21:25:41.838Z,101493.36
2019-05-05T21:28:11.826Z,101488.89
2019-05-05T21:30:41.745Z,101494.66
2019-05-05T21:33:12.067Z,101490.48
2019-05-05T21:36:04.057Z,101486.46
2019-05-05T21:38:32.502Z,101481.11
2019-05-05T21:41:04.072Z,101481.63
2019-05-05T21:43:33.353Z,101483.25
2019-05-05T21:46:04.426Z,101478.70
2019-05-05T21:48:34.244Z,101481.98
2019-05-05T21:51:07.088Z,101484.28
2019-05-05T21:53:39.255Z,101477.52
2019-05-05T21:56:16.353Z,101486.50
2019-05-05T21:58:47.052Z,101488.64
2019-05-05T22:01:18.422Z,101485.77
2019-05-05T22:03:48.272Z,101483.17
2019-05-05T22:06:17.797Z,101482.75
2019-05-05T22:08:47.380Z,101485.45
2019-05-05T22:11:17.239Z,101488.48
2019-05-05T22:13:46.739Z,101485.05
2019-05-05T22:16:16.702Z,101477.98
2019-05-05T22:18:46.879Z,101479.41
2019-05-05T22:21:21.125Z,101482.03
2019-05-05T22:24:08.372Z,101485.06
2019-05-05T22:26:37.877Z,101486.53
2019-05-05T22:29:07.401Z,101483.61
2019-05-05T22:31:38.273Z,101483.41
2019-05-05T22:34:08.169Z,101491.14
2019-05-05T22:36:37.922Z,101481.11
2019-05-05T22:39:16.438Z,101486.28
2019-05-05T22:41:44.874Z,101482.30
2019-05-05T22:44:14.465Z,101482.00
2019-05-05T22:46:44.811Z,101474.30
2019-05-05T22:49:14.830Z,101483.89
2019-05-05T22:51:44.947Z,101478.22
2019-05-05T22:54:15.112Z,101475.62
2019-05-05T22:56:45.852Z,101472.78
2019-05-05T22:59:15.460Z,101473.80
2019-05-05T23:01:45.626Z,101474.07
2019-05-05T23:04:16.858Z,101476.29
2019-05-05T23:06:48.150Z,101471.09
2019-05-05T23:09:17.959Z,101471.44
2019-05-05T23:11:47.687Z,101476.27
2019-05-05T23:14:29.862Z,101474.26
2019-05-05T23:17:04.627Z,101472.44
2019-05-05T23:19:36.419Z,101475.28
2019-05-05T23:22:10.792Z,101471.02
2019-05-05T23:24:43.487Z,101472.12
2019-05-05T23:27:14.991Z,101482.09
2019-05-05T23:29:44.665Z,101478.48
2019-05-05T23:32:15.535Z,101475.68
2019-05-05T23:34:47.479Z,101467.23
2019-05-05T23:37:17.028Z,101466.04
2019-05-05T23:39:46.795Z,101473.73
2019-05-05T23:42:16.484Z,101468.72
2019-05-05T23:44:45.995Z,101459.98
2019-05-05T23:47:15.716Z,101453.50
2019-05-05T23:49:45.305Z,101466.28
2019-05-05T23:52:16.513Z,101466.84
2019-05-05T23:54:46.167Z,101464.31
2019-05-05T23:57:15.815Z,101462.74
2019-05-05T23:59:45.354Z,101466.32
